createdAt,value
2022-09-11T00:02:02.027Z,76506.56
2022-09-11T00:04:28.426Z,76506.56
2022-09-11T00:06:54.820Z,76506.56
2022-09-11T00:09:21.219Z,76506.56
2022-09-11T00:11:47.539Z,76506.56
2022-09-11T00:14:14.860Z,76502.56
2022-09-11T00:16:43.102Z,76504.56
2022-09-11T00:19:12.034Z,76500.56
2022-09-11T00:21:38.887Z,76506.56
2022-09-11T00:24:05.347Z,76504.56
2022-09-11T00:26:31.850Z,76508.56
2022-09-11T00:28:58.257Z,76508.56
2022-09-11T00:31:25.873Z,76504.56
2022-09-11T00:33:52.450Z,76504.56
2022-09-11T00:36:19.966Z,76498.56
2022-09-11T00:38:47.754Z,76502.56
2022-09-11T00:41:16.170Z,76500.56
2022-09-11T00:44:02.438Z,76500.56
2022-09-11T00:46:37.325Z,76498.56
2022-09-11T00:49:11.618Z,76502.56
2022-09-11T00:51:38.435Z,76502.56
2022-09-11T00:54:05.137Z,76502.56
2022-09-11T00:56:35.944Z,76502.56
2022-09-11T00:59:02.795Z,76504.56
2022-09-11T01:01:29.167Z,76502.56
2022-09-11T01:03:56.099Z,76506.56
2022-09-11T01:06:23.300Z,76504.56
2022-09-11T01:08:49.666Z,76506.56
2022-09-11T01:11:25.281Z,76504.56
2022-09-11T01:14:17.760Z,76510.56
2022-09-11T01:16:49.142Z,76510.56
2022-09-11T01:19:24.852Z,76510.56
2022-09-11T01:22:00.268Z,76510.56
2022-09-11T01:24:26.601Z,76514.56
2022-09-11T01:26:52.929Z,76514.56
2022-09-11T01:29:29.134Z,76518.56
2022-09-11T01:31:55.485Z,76518.56
2022-09-11T01:34:35.950Z,76518.56
2022-09-11T01:37:13.741Z,76522.56
2022-09-11T01:39:46.582Z,76522.56
2022-09-11T01:42:16.303Z,76522.56
2022-09-11T01:44:48.950Z,76520.56
2022-09-11T01:47:16.840Z,76518.56
2022-09-11T01:50:03.662Z,76514.56
2022-09-11T01:52:42.423Z,76522.56
2022-09-11T01:55:21.083Z,76522.56
2022-09-11T01:58:06.640Z,76522.56
2022-09-11T02:00:35.562Z,76522.56
2022-09-11T02:03:18.125Z,76522.56
2022-09-11T02:05:47.719Z,76522.56
2022-09-11T02:08:16.603Z,76526.59
2022-09-11T02:10:52.037Z,76522.56
2022-09-11T02:13:29.773Z,76526.59
2022-09-11T02:16:00.178Z,76526.59
2022-09-11T02:18:29.789Z,76526.59
2022-09-11T02:20:56.107Z,76524.56
2022-09-11T02:23:22.476Z,76522.56
2022-09-11T02:25:48.836Z,76524.56
2022-09-11T02:28:15.163Z,76530.59
2022-09-11T02:30:41.999Z,76526.59
2022-09-11T02:33:28.026Z,76528.59
2022-09-11T02:35:59.581Z,76526.59
2022-09-11T02:38:30.017Z,76536.59
2022-09-11T02:41:09.143Z,76538.59
2022-09-11T02:43:35.419Z,76538.59
2022-09-11T02:46:20.129Z,76532.59
2022-09-11T02:49:06.798Z,76534.59
2022-09-11T02:51:48.432Z,76530.59
2022-09-11T02:54:33.140Z,76530.59
2022-09-11T02:57:09.981Z,76530.59
2022-09-11T02:59:39.447Z,76530.59
2022-09-11T03:02:09.935Z,76532.59
2022-09-11T03:04:37.239Z,76538.59
2022-09-11T03:07:03.682Z,76534.59
2022-09-11T03:09:30.087Z,76532.59
2022-09-11T03:11:56.492Z,76538.59
2022-09-11T03:14:22.902Z,76538.59
2022-09-11T03:16:50.060Z,76540.59
2022-09-11T03:19:16.428Z,76546.59
2022-09-11T03:21:42.999Z,76542.59
2022-09-11T03:24:10.174Z,76544.59
2022-09-11T03:26:37.194Z,76546.59
2022-09-11T03:29:03.898Z,76544.59
2022-09-11T03:31:30.530Z,76542.59
2022-09-11T03:33:57.774Z,76542.59
2022-09-11T03:36:24.143Z,76548.59
2022-09-11T03:38:51.197Z,76544.59
2022-09-11T03:41:17.532Z,76546.59
2022-09-11T03:43:44.133Z,76550.59
2022-09-11T03:46:10.490Z,76550.59
2022-09-11T03:48:36.855Z,76556.59
2022-09-11T03:51:05.693Z,76558.59
2022-09-11T03:53:35.574Z,76560.59
2022-09-11T03:56:03.967Z,76566.59
2022-09-11T03:58:30.337Z,76566.59
2022-09-11T04:00:56.730Z,76570.59
2022-09-11T04:03:23.150Z,76562.59
2022-09-11T04:05:57.021Z,76562.59
2022-09-11T04:08:23.333Z,76566.59
2022-09-11T04:10:49.678Z,76570.59
2022-09-11T04:13:16.725Z,76562.59
2022-09-11T04:15:43.071Z,76566.59
2022-09-11T04:18:09.517Z,76562.59
2022-09-11T04:20:38.779Z,76562.59
2022-09-11T04:23:05.227Z,76570.59
2022-09-11T04:25:31.598Z,76570.59
2022-09-11T04:27:57.943Z,76570.59
2022-09-11T04:30:24.286Z,76574.63
2022-09-11T04:32:50.631Z,76570.59
2022-09-11T04:35:16.963Z,76576.63
2022-09-11T04:37:43.304Z,76576.63
2022-09-11T04:40:10.046Z,76578.63
2022-09-11T04:42:36.431Z,76574.63
2022-09-11T04:45:03.334Z,76580.63
2022-09-11T04:47:30.154Z,76586.63
2022-09-11T04:49:57.438Z,76586.63
2022-09-11T04:52:24.239Z,76586.63
2022-09-11T04:54:50.576Z,76582.63
2022-09-11T04:57:16.915Z,76590.63
2022-09-11T04:59:43.270Z,76590.63
2022-09-11T05:02:09.674Z,76590.63
2022-09-11T05:04:36.149Z,76590.63
2022-09-11T05:07:02.709Z,76600.63
2022-09-11T05:09:29.166Z,76606.63
2022-09-11T05:11:56.995Z,76606.63
2022-09-11T05:14:23.326Z,76608.63
2022-09-11T05:16:49.739Z,76610.63
2022-09-11T05:19:16.068Z,76616.66
2022-09-11T05:21:42.467Z,76618.66
2022-09-11T05:24:08.868Z,76620.66
2022-09-11T05:26:36.913Z,76626.66
2022-09-11T05:29:07.587Z,76622.66
2022-09-11T05:31:33.954Z,76630.66
2022-09-11T05:34:00.640Z,76630.66
2022-09-11T05:36:27.787Z,76634.66
2022-09-11T05:38:54.339Z,76638.66
2022-09-11T05:41:20.747Z,76634.66
2022-09-11T05:43:47.098Z,76630.66
2022-09-11T05:46:14.901Z,76634.66
2022-09-11T05:48:41.263Z,76632.66
2022-09-11T05:51:10.570Z,76638.66
2022-09-11T05:53:37.919Z,76642.66
2022-09-11T05:56:15.878Z,76646.66
2022-09-11T05:58:43.606Z,76650.66
2022-09-11T06:01:11.473Z,76646.66
2022-09-11T06:03:38.728Z,76648.66
2022-09-11T06:06:06.800Z,76654.66
2022-09-11T06:08:34.595Z,76656.69
2022-09-11T06:11:02.736Z,76656.69
2022-09-11T06:13:30.063Z,76662.69
2022-09-11T06:15:56.498Z,76658.69
2022-09-11T06:18:22.887Z,76666.69
2022-09-11T06:20:56.572Z,76664.69
2022-09-11T06:23:23.044Z,76670.69
2022-09-11T06:25:49.431Z,76670.69
2022-09-11T06:28:16.035Z,76670.69
2022-09-11T06:30:42.389Z,76674.69
2022-09-11T06:33:08.790Z,76672.69
2022-09-11T06:35:35.122Z,76678.69
2022-09-11T06:38:02.792Z,76686.69
2022-09-11T06:40:29.175Z,76694.69
2022-09-11T06:42:55.495Z,76698.69
2022-09-11T06:45:21.832Z,76690.69
2022-09-11T06:47:48.197Z,76690.69
2022-09-11T06:50:14.633Z,76690.69
2022-09-11T06:52:42.968Z,76690.69
2022-09-11T06:55:13.411Z,76690.69
2022-09-11T06:57:42.166Z,76688.69
2022-09-11T07:00:09.655Z,76694.69
2022-09-11T07:02:36.058Z,76686.69
2022-09-11T07:05:02.487Z,76688.69
2022-09-11T07:07:29.015Z,76688.69
2022-09-11T07:09:55.507Z,76694.69
2022-09-11T07:12:24.003Z,76686.69
2022-09-11T07:14:50.420Z,76690.69
2022-09-11T07:17:16.822Z,76686.69
2022-09-11T07:19:43.318Z,76694.69
2022-09-11T07:22:10.154Z,76690.69
2022-09-11T07:24:36.495Z,76694.69
2022-09-11T07:27:02.918Z,76694.69
2022-09-11T07:29:29.404Z,76698.69
2022-09-11T07:31:57.823Z,76698.69
2022-09-11T07:34:26.598Z,76702.72
2022-09-11T07:36:53.013Z,76698.69
2022-09-11T07:39:19.389Z,76698.69
2022-09-11T07:41:45.839Z,76702.72
2022-09-11T07:44:12.219Z,76704.72
2022-09-11T07:46:41.463Z,76704.72
2022-09-11T07:49:10.087Z,76702.72
2022-09-11T07:51:37.290Z,76702.72
2022-09-11T07:54:03.843Z,76702.72
2022-09-11T07:56:31.158Z,76700.72
2022-09-11T07:58:57.542Z,76702.72
2022-09-11T08:01:25.501Z,76694.69
2022-09-11T08:03:57.036Z,76702.72
2022-09-11T08:06:24.402Z,76702.72
2022-09-11T08:08:54.888Z,76702.72
2022-09-11T08:11:21.677Z,76702.72
2022-09-11T08:13:50.963Z,76706.72
2022-09-11T08:16:18.210Z,76706.72
2022-09-11T08:18:45.118Z,76704.72
2022-09-11T08:21:13.014Z,76702.72
2022-09-11T08:23:43.234Z,76694.69
2022-09-11T08:26:14.303Z,76692.69
2022-09-11T08:28:43.151Z,76690.69
2022-09-11T08:31:09.925Z,76690.69
2022-09-11T08:33:36.278Z,76694.69
2022-09-11T08:36:04.242Z,76694.69
2022-09-11T08:38:30.642Z,76698.69
2022-09-11T08:41:11.169Z,76690.69
2022-09-11T08:43:44.543Z,76694.69
2022-09-11T08:46:12.057Z,76698.69
2022-09-11T08:48:49.810Z,76700.72
2022-09-11T08:51:17.443Z,76706.72
2022-09-11T08:53:45.472Z,76706.72
2022-09-11T08:56:15.577Z,76710.72
2022-09-11T08:59:00.639Z,76710.72
2022-09-11T09:01:39.146Z,76706.72
2022-09-11T09:04:06.578Z,76714.72
2022-09-11T09:06:51.715Z,76710.72
2022-09-11T09:09:36.981Z,76710.72
2022-09-11T09:12:21.756Z,76716.72
2022-09-11T09:14:56.441Z,76714.72
2022-09-11T09:17:33.113Z,76724.72
2022-09-11T09:20:01.383Z,76722.72
2022-09-11T09:22:30.735Z,76726.72
2022-09-11T09:25:00.742Z,76728.72
2022-09-11T09:27:47.066Z,76732.72
2022-09-11T09:30:15.449Z,76736.72
2022-09-11T09:32:45.613Z,76734.72
2022-09-11T09:35:16.797Z,76734.72
2022-09-11T09:37:43.959Z,76738.75
2022-09-11T09:40:11.002Z,76744.75
2022-09-11T09:42:49.597Z,76730.72
2022-09-11T09:45:27.995Z,76732.72
2022-09-11T09:47:54.426Z,76734.72
2022-09-11T09:50:29.983Z,76730.72
2022-09-11T09:53:12.979Z,76730.72
2022-09-11T09:55:40.558Z,76724.72
2022-09-11T09:58:09.804Z,76724.72
2022-09-11T10:00:37.576Z,76724.72
2022-09-11T10:03:21.381Z,76722.72
2022-09-11T10:05:48.964Z,76726.72
2022-09-11T10:08:35.525Z,76724.72
2022-09-11T10:11:03.805Z,76726.72
2022-09-11T10:13:34.749Z,76722.72
2022-09-11T10:16:05.317Z,76726.72
2022-09-11T10:18:35.861Z,76732.72
2022-09-11T10:21:21.803Z,76730.72
2022-09-11T10:23:58.498Z,76736.72
2022-09-11T10:26:49.873Z,76738.75
2022-09-11T10:29:27.411Z,76740.75
2022-09-11T10:32:04.378Z,76738.75
2022-09-11T10:34:38.000Z,76736.72
2022-09-11T10:37:17.383Z,76738.75
2022-09-11T10:39:46.468Z,76738.75
2022-09-11T10:42:16.789Z,76744.75
2022-09-11T10:44:47.091Z,76750.75
2022-09-11T10:47:13.564Z,76744.75
2022-09-11T10:49:40.024Z,76746.75
2022-09-11T10:52:09.411Z,76746.75
2022-09-11T10:54:48.175Z,76746.75
2022-09-11T10:57:37.830Z,76742.75
2022-09-11T11:00:09.416Z,76742.75
2022-09-11T11:02:38.700Z,76746.75
2022-09-11T11:05:06.414Z,76748.75
2022-09-11T11:07:42.718Z,76742.75
2022-09-11T11:10:24.496Z,76742.75
2022-09-11T11:13:14.564Z,76746.75
2022-09-11T11:16:01.272Z,76750.75
2022-09-11T11:18:33.941Z,76746.75
2022-09-11T11:21:15.631Z,76742.75
2022-09-11T11:23:45.154Z,76734.72
2022-09-11T11:26:17.573Z,76746.75
2022-09-11T11:29:04.213Z,76738.75
2022-09-11T11:31:37.532Z,76742.75
2022-09-11T11:34:11.732Z,76742.75
2022-09-11T11:36:41.069Z,76742.75
2022-09-11T11:39:15.477Z,76746.75
2022-09-11T11:41:45.259Z,76746.75
2022-09-11T11:44:15.851Z,76746.75
2022-09-11T11:46:44.848Z,76734.72
2022-09-11T11:49:15.980Z,76738.75
2022-09-11T11:51:55.250Z,76736.72
2022-09-11T11:54:34.080Z,76734.72
2022-09-11T11:57:07.711Z,76738.75
2022-09-11T11:59:52.128Z,76738.75
2022-09-11T12:02:24.788Z,76740.75
2022-09-11T12:05:03.028Z,76742.75
2022-09-11T12:07:31.464Z,76748.75
2022-09-11T12:09:59.314Z,76744.75
2022-09-11T12:12:28.115Z,76746.75
2022-09-11T12:14:56.679Z,76742.75
2022-09-11T12:17:22.974Z,76748.75
2022-09-11T12:20:08.252Z,76746.75
2022-09-11T12:22:38.331Z,76748.75
2022-09-11T12:25:05.792Z,76748.75
2022-09-11T12:27:34.974Z,76748.75
2022-09-11T12:30:09.560Z,76750.75
2022-09-11T12:32:46.460Z,76754.75
2022-09-11T12:35:15.859Z,76754.75
2022-09-11T12:37:43.155Z,76754.75
2022-09-11T12:40:22.988Z,76756.75
2022-09-11T12:42:57.601Z,76746.75
2022-09-11T12:45:31.660Z,76750.75
2022-09-11T12:48:06.365Z,76750.75
2022-09-11T12:50:33.239Z,76746.75
2022-09-11T12:53:02.447Z,76752.75
2022-09-11T12:55:31.271Z,76750.75
2022-09-11T12:58:02.586Z,76750.75
2022-09-11T13:00:55.591Z,76750.75
2022-09-11T13:03:24.587Z,76746.75
2022-09-11T13:05:55.576Z,76750.75
2022-09-11T13:08:24.173Z,76748.75
2022-09-11T13:10:50.644Z,76746.75
2022-09-11T13:13:35.586Z,76750.75
2022-09-11T13:16:20.555Z,76748.75
2022-09-11T13:18:46.903Z,76746.75
2022-09-11T13:21:14.702Z,76746.75
2022-09-11T13:23:42.913Z,76750.75
2022-09-11T13:26:15.091Z,76750.75
2022-09-11T13:28:49.802Z,76756.75
2022-09-11T13:31:24.372Z,76748.75
2022-09-11T13:33:51.724Z,76754.75
2022-09-11T13:36:21.047Z,76742.75
2022-09-11T13:38:49.903Z,76750.75
2022-09-11T13:41:18.282Z,76746.75
2022-09-11T13:43:45.799Z,76750.75
2022-09-11T13:46:16.011Z,76750.75
2022-09-11T13:48:49.967Z,76752.75
2022-09-11T13:51:18.946Z,76754.75
2022-09-11T13:53:46.536Z,76758.75
2022-09-11T13:56:21.361Z,76758.75
2022-09-11T13:58:52.907Z,76754.75
2022-09-11T14:01:20.236Z,76758.75
2022-09-11T14:03:48.921Z,76758.75
2022-09-11T14:06:17.540Z,76758.75
2022-09-11T14:08:49.945Z,76758.75
2022-09-11T14:11:34.419Z,76754.75
2022-09-11T14:14:00.994Z,76758.75
2022-09-11T14:16:31.791Z,76758.75
2022-09-11T14:18:59.827Z,76768.75
2022-09-11T14:21:31.418Z,76770.75
2022-09-11T14:23:58.442Z,76766.75
2022-09-11T14:26:26.410Z,76766.75
2022-09-11T14:28:55.777Z,76770.75
2022-09-11T14:31:29.463Z,76766.75
2022-09-11T14:34:16.196Z,76770.75
2022-09-11T14:36:44.563Z,76768.75
2022-09-11T14:39:26.258Z,76770.75
2022-09-11T14:41:53.146Z,76766.75
2022-09-11T14:44:21.062Z,76768.75
2022-09-11T14:46:49.659Z,76766.75
2022-09-11T14:49:16.239Z,76766.75
2022-09-11T14:51:43.272Z,76768.75
2022-09-11T14:54:14.778Z,76766.75
2022-09-11T14:56:41.575Z,76764.75
2022-09-11T14:59:08.087Z,76762.75
2022-09-11T15:01:35.679Z,76766.75
2022-09-11T15:04:03.242Z,76766.75
2022-09-11T15:06:29.695Z,76766.75
2022-09-11T15:08:56.347Z,76766.75
2022-09-11T15:11:22.678Z,76764.75
2022-09-11T15:14:13.401Z,76762.75
2022-09-11T15:16:35.463Z,76766.75
2022-09-11T15:19:01.805Z,76762.75
2022-09-11T15:21:28.347Z,76762.75
2022-09-11T15:23:55.298Z,76766.75
2022-09-11T15:26:21.818Z,76766.75
2022-09-11T15:28:50.907Z,76770.75
2022-09-11T15:31:18.560Z,76770.75
2022-09-11T15:33:49.522Z,76770.75
2022-09-11T15:36:16.033Z,76772.75
2022-09-11T15:38:42.601Z,76774.75
2022-09-11T15:41:10.309Z,76774.75
2022-09-11T15:43:39.331Z,76770.75
2022-09-11T15:46:12.245Z,76770.75
2022-09-11T15:48:39.043Z,76782.78
2022-09-11T15:51:08.274Z,76782.78
2022-09-11T15:53:37.086Z,76782.78
2022-09-11T15:56:11.002Z,76784.78
2022-09-11T15:58:39.993Z,76786.78
2022-09-11T16:01:06.992Z,76790.78
2022-09-11T16:03:33.921Z,76792.78
2022-09-11T16:06:01.199Z,76792.78
2022-09-11T16:08:28.062Z,76802.78
2022-09-11T16:10:54.535Z,76808.78
2022-09-11T16:13:21.035Z,76810.78
2022-09-11T16:15:49.254Z,76814.78
2022-09-11T16:18:19.133Z,76814.78
2022-09-11T16:20:55.050Z,76810.78
2022-09-11T16:23:21.980Z,76798.78
2022-09-11T16:25:48.830Z,76794.78
2022-09-11T16:28:15.163Z,76792.78
2022-09-11T16:30:43.832Z,76786.78
2022-09-11T16:33:12.655Z,76782.78
2022-09-11T16:35:39.333Z,76782.78
2022-09-11T16:38:07.465Z,76780.78
2022-09-11T16:40:35.386Z,76778.75
2022-09-11T16:43:02.374Z,76776.75
2022-09-11T16:45:28.772Z,76770.75
2022-09-11T16:47:57.186Z,76774.75
2022-09-11T16:50:24.335Z,76774.75
2022-09-11T16:52:51.026Z,76778.75
2022-09-11T16:55:20.643Z,76774.75
2022-09-11T16:57:48.051Z,76782.78
2022-09-11T17:00:14.672Z,76776.75
2022-09-11T17:02:41.065Z,76774.75
2022-09-11T17:05:08.248Z,76772.75
2022-09-11T17:07:35.710Z,76784.78
2022-09-11T17:10:02.588Z,76782.78
2022-09-11T17:12:28.954Z,76778.75
2022-09-11T17:14:55.289Z,76776.75
2022-09-11T17:17:23.207Z,76780.78
2022-09-11T17:19:51.292Z,76782.78
2022-09-11T17:22:17.908Z,76782.78
2022-09-11T17:24:44.534Z,76786.78
2022-09-11T17:27:10.979Z,76788.78
2022-09-11T17:29:40.169Z,76786.78
2022-09-11T17:32:27.243Z,76780.78
2022-09-11T17:34:55.060Z,76780.78
2022-09-11T17:37:21.391Z,76780.78
2022-09-11T17:39:47.808Z,76778.75
2022-09-11T17:42:14.178Z,76774.75
2022-09-11T17:44:41.480Z,76774.75
2022-09-11T17:47:08.298Z,76780.78
2022-09-11T17:49:34.714Z,76778.75
2022-09-11T17:52:01.143Z,76776.75
2022-09-11T17:54:28.215Z,76774.75
2022-09-11T17:56:55.641Z,76778.75
2022-09-11T17:59:22.264Z,76776.75
2022-09-11T18:01:48.723Z,76774.75
2022-09-11T18:04:15.205Z,76774.75
2022-09-11T18:06:41.975Z,76772.75
2022-09-11T18:09:15.112Z,76774.75
2022-09-11T18:11:43.124Z,76772.75
2022-09-11T18:14:10.047Z,76776.75
2022-09-11T18:16:36.827Z,76780.78
2022-09-11T18:19:05.496Z,76782.78
2022-09-11T18:21:33.261Z,76782.78
2022-09-11T18:24:01.337Z,76784.78
2022-09-11T18:26:29.820Z,76786.78
2022-09-11T18:28:57.700Z,76784.78
2022-09-11T18:31:24.270Z,76782.78
2022-09-11T18:33:55.359Z,76786.78
2022-09-11T18:36:23.585Z,76790.78
2022-09-11T18:38:57.526Z,76786.78
2022-09-11T18:41:24.512Z,76786.78
2022-09-11T18:44:00.500Z,76790.78
2022-09-11T18:46:27.416Z,76786.78
2022-09-11T18:48:55.944Z,76788.78
2022-09-11T18:51:22.457Z,76790.78
2022-09-11T18:53:51.900Z,76794.78
2022-09-11T18:56:18.916Z,76790.78
2022-09-11T18:58:47.817Z,76790.78
2022-09-11T19:01:15.684Z,76796.78
2022-09-11T19:03:43.672Z,76800.78
2022-09-11T19:06:14.335Z,76798.78
2022-09-11T19:08:41.511Z,76806.78
2022-09-11T19:11:09.444Z,76808.78
2022-09-11T19:13:36.548Z,76810.78
2022-09-11T19:16:04.338Z,76818.81
2022-09-11T19:18:31.536Z,76820.81
2022-09-11T19:21:00.179Z,76818.81
2022-09-11T19:23:29.308Z,76830.81
2022-09-11T19:25:55.733Z,76832.81
2022-09-11T19:28:22.076Z,76826.81
2022-09-11T19:30:56.638Z,76834.81
2022-09-11T19:33:23.003Z,76838.81
2022-09-11T19:35:57.467Z,76836.81
2022-09-11T19:38:26.870Z,76838.81
2022-09-11T19:40:53.337Z,76842.81
2022-09-11T19:43:24.934Z,76838.81
2022-09-11T19:45:51.411Z,76838.81
2022-09-11T19:48:18.471Z,76838.81
2022-09-11T19:50:45.513Z,76844.81
2022-09-11T19:53:11.878Z,76846.81
2022-09-11T19:55:38.318Z,76844.81
2022-09-11T19:58:05.360Z,76850.81
2022-09-11T20:00:35.227Z,76846.81
2022-09-11T20:03:02.019Z,76848.81
2022-09-11T20:05:29.014Z,76848.81
2022-09-11T20:07:56.343Z,76850.81
2022-09-11T20:10:27.736Z,76852.81
2022-09-11T20:12:54.446Z,76858.84
2022-09-11T20:15:20.784Z,76858.84
2022-09-11T20:17:47.267Z,76860.84
2022-09-11T20:20:13.688Z,76856.81
2022-09-11T20:22:40.007Z,76858.84
2022-09-11T20:25:06.554Z,76858.84
2022-09-11T20:27:33.602Z,76854.81
2022-09-11T20:30:00.623Z,76858.84
2022-09-11T20:32:27.168Z,76856.81
2022-09-11T20:34:53.539Z,76856.81
2022-09-11T20:37:19.950Z,76852.81
2022-09-11T20:39:46.344Z,76850.81
2022-09-11T20:42:13.492Z,76854.81
2022-09-11T20:44:39.812Z,76854.81
2022-09-11T20:47:07.002Z,76850.81
2022-09-11T20:49:33.408Z,76850.81
2022-09-11T20:52:00.511Z,76848.81
2022-09-11T20:54:27.026Z,76854.81
2022-09-11T20:56:53.341Z,76848.81
2022-09-11T20:59:19.686Z,76852.81
2022-09-11T21:01:46.155Z,76854.81
2022-09-11T21:04:12.544Z,76854.81
2022-09-11T21:06:38.882Z,76850.81
2022-09-11T21:09:06.395Z,76850.81
2022-09-11T21:11:33.202Z,76858.84
2022-09-11T21:13:59.619Z,76856.81
2022-09-11T21:16:26.326Z,76856.81
2022-09-11T21:18:53.723Z,76852.81
2022-09-11T21:21:20.604Z,76854.81
2022-09-11T21:23:47.541Z,76854.81
2022-09-11T21:26:14.792Z,76852.81
2022-09-11T21:28:41.399Z,76860.84
2022-09-11T21:31:07.858Z,76858.84
2022-09-11T21:33:35.128Z,76858.84
2022-09-11T21:36:01.686Z,76858.84
2022-09-11T21:38:29.423Z,76862.84
2022-09-11T21:40:56.661Z,76858.84
2022-09-11T21:43:23.431Z,76866.84
2022-09-11T21:45:49.841Z,76862.84
2022-09-11T21:48:16.191Z,76862.84
2022-09-11T21:50:42.918Z,76862.84
2022-09-11T21:53:10.246Z,76862.84
2022-09-11T21:55:45.306Z,76864.84
2022-09-11T21:58:14.553Z,76862.84
2022-09-11T22:00:43.096Z,76864.84
2022-09-11T22:03:11.189Z,76862.84
2022-09-11T22:05:43.336Z,76866.84
2022-09-11T22:08:10.890Z,76864.84
2022-09-11T22:10:41.871Z,76866.84
2022-09-11T22:13:10.064Z,76866.84
2022-09-11T22:15:43.374Z,76866.84
2022-09-11T22:18:10.130Z,76864.84
2022-09-11T22:20:37.177Z,76864.84
2022-09-11T22:23:03.663Z,76858.84
2022-09-11T22:25:30.050Z,76852.81
2022-09-11T22:27:57.091Z,76858.84
2022-09-11T22:30:23.785Z,76850.81
2022-09-11T22:32:50.323Z,76850.81
2022-09-11T22:35:17.167Z,76848.81
2022-09-11T22:37:43.488Z,76854.81
2022-09-11T22:40:10.073Z,76852.81
2022-09-11T22:42:36.759Z,76848.81
2022-09-11T22:45:03.192Z,76852.81
2022-09-11T22:47:29.594Z,76852.81
2022-09-11T22:49:55.950Z,76852.81
2022-09-11T22:52:22.963Z,76854.81
2022-09-11T22:54:49.586Z,76854.81
2022-09-11T22:57:15.945Z,76854.81
2022-09-11T22:59:42.296Z,76848.81
2022-09-11T23:02:08.675Z,76854.81
2022-09-11T23:04:35.031Z,76854.81
2022-09-11T23:07:16.989Z,76850.81
2022-09-11T23:09:44.211Z,76856.81
2022-09-11T23:12:10.988Z,76858.84
2022-09-11T23:14:37.326Z,76854.81
2022-09-11T23:17:03.735Z,76858.84
2022-09-11T23:19:30.447Z,76858.84
2022-09-11T23:21:56.803Z,76864.84
2022-09-11T23:24:23.130Z,76856.81
2022-09-11T23:26:49.738Z,76858.84
2022-09-11T23:29:16.078Z,76858.84
2022-09-11T23:31:42.519Z,76858.84
2022-09-11T23:34:09.155Z,76858.84
2022-09-11T23:36:35.611Z,76858.84
2022-09-11T23:39:02.307Z,76858.84
2022-09-11T23:41:29.051Z,76850.81
2022-09-11T23:43:55.788Z,76858.84
2022-09-11T23:46:22.106Z,76856.81
2022-09-11T23:48:48.439Z,76860.84
2022-09-11T23:51:15.694Z,76856.81
2022-09-11T23:53:47.519Z,76860.84
2022-09-11T23:56:17.086Z,76856.81
2022-09-11T23:58:45.210Z,76852.81
